createdAt,value
2019-03-03T00:04:29.624Z,92.45
2019-03-03T00:10:34.435Z,92.25
2019-03-03T00:16:39.061Z,92.32
2019-03-03T00:22:43.882Z,92.94
2019-03-03T00:28:48.485Z,92.26
2019-03-03T00:34:53.306Z,92.63
2019-03-03T00:41:08.843Z,92.07
2019-03-03T00:47:31.364Z,92.20
2019-03-03T00:53:35.926Z,92.43
2019-03-03T00:59:57.985Z,91.44
2019-03-03T01:06:10.717Z,90.96
2019-03-03T01:12:21.196Z,90.16
2019-03-03T01:18:39.470Z,90.64
2019-03-03T01:24:59.388Z,90.90
2019-03-03T01:31:04.111Z,90.52
2019-03-03T01:37:08.954Z,90.19
2019-03-03T01:43:13.723Z,89.43
2019-03-03T01:49:18.605Z,89.19
2019-03-03T01:55:23.154Z,89.27
2019-03-03T02:01:28.131Z,89.08
2019-03-03T02:07:33.043Z,88.31
2019-03-03T02:13:37.744Z,87.14
2019-03-03T02:19:42.454Z,88.16
2019-03-03T02:25:47.137Z,88.08
2019-03-03T02:31:51.823Z,88.24
2019-03-03T02:37:56.513Z,87.60
2019-03-03T02:44:01.077Z,87.39
2019-03-03T02:50:09.785Z,87.37
2019-03-03T02:56:14.566Z,86.64
2019-03-03T03:02:20.913Z,87.04
2019-03-03T03:08:28.337Z,85.80
2019-03-03T03:14:51.058Z,85.60
2019-03-03T03:21:13.497Z,85.16
2019-03-03T03:27:28.868Z,84.51
2019-03-03T03:33:35.360Z,84.32
2019-03-03T03:39:45.956Z,83.53
2019-03-03T03:45:58.868Z,82.13
2019-03-03T03:52:07.875Z,82.80
2019-03-03T03:58:26.147Z,82.82
2019-03-03T04:04:35.619Z,81.86
2019-03-03T04:10:41.799Z,81.96
2019-03-03T04:17:06.487Z,80.74
2019-03-03T04:23:12.694Z,81.11
2019-03-03T04:29:31.175Z,81.53
2019-03-03T04:35:37.736Z,81.44
2019-03-03T04:41:54.111Z,81.59
2019-03-03T04:48:07.227Z,80.87
2019-03-03T04:54:16.484Z,80.35
2019-03-03T05:00:38.605Z,80.80
2019-03-03T05:06:47.860Z,80.26
2019-03-03T05:12:57.125Z,79.77
2019-03-03T05:19:03.542Z,79.95
2019-03-03T05:25:08.813Z,79.79
2019-03-03T05:31:13.386Z,79.12
2019-03-03T05:37:18.061Z,80.02
2019-03-03T05:43:22.628Z,79.89
2019-03-03T05:49:27.260Z,80.20
2019-03-03T05:55:32.188Z,80.47
2019-03-03T06:01:36.900Z,80.28
2019-03-03T06:07:41.523Z,80.09
2019-03-03T06:13:46.176Z,79.78
2019-03-03T06:19:50.840Z,79.43
2019-03-03T06:25:55.413Z,79.65
2019-03-03T06:32:01.019Z,79.98
2019-03-03T06:38:05.972Z,79.64
2019-03-03T06:44:10.821Z,79.89
2019-03-03T06:50:15.436Z,80.02
2019-03-03T06:56:19.993Z,79.89
2019-03-03T07:02:24.553Z,79.45
2019-03-03T07:08:29.133Z,79.35
2019-03-03T07:14:33.903Z,79.23
2019-03-03T07:20:38.505Z,78.49
2019-03-03T07:26:43.114Z,78.88
2019-03-03T07:33:02.670Z,78.36
2019-03-03T07:39:16.690Z,78.13
2019-03-03T07:45:21.511Z,77.88
2019-03-03T07:51:26.298Z,77.77
2019-03-03T07:57:31.518Z,77.07
2019-03-03T08:03:36.147Z,77.21
2019-03-03T08:09:40.836Z,77.36
2019-03-03T08:15:45.408Z,77.17
2019-03-03T08:21:50.036Z,77.56
2019-03-03T08:27:54.729Z,77.17
2019-03-03T08:34:00.663Z,77.36
2019-03-03T08:40:08.052Z,77.38
2019-03-03T08:46:17.088Z,76.96
2019-03-03T08:52:29.213Z,76.61
2019-03-03T08:58:53.262Z,75.81
2019-03-03T09:05:17.697Z,74.73
2019-03-03T09:11:35.641Z,75.81
2019-03-03T09:17:48.946Z,75.64
2019-03-03T09:24:13.861Z,75.49
2019-03-03T09:30:36.449Z,75.36
2019-03-03T09:36:42.718Z,75.16
2019-03-03T09:43:04.321Z,74.85
2019-03-03T09:49:19.552Z,74.75
2019-03-03T09:55:26.019Z,74.91
2019-03-03T10:01:48.733Z,75.27
2019-03-03T10:07:55.077Z,75.79
2019-03-03T10:14:19.921Z,75.99
2019-03-03T10:20:29.148Z,77.11
2019-03-03T10:26:35.072Z,77.70
2019-03-03T10:32:58.230Z,78.13
2019-03-03T10:39:07.819Z,79.29
2019-03-03T10:45:14.097Z,81.78
2019-03-03T10:51:22.832Z,81.49
2019-03-03T10:57:42.305Z,78.79
2019-03-03T11:03:55.707Z,77.48
2019-03-03T11:10:07.947Z,76.92
2019-03-03T11:16:14.326Z,77.17
2019-03-03T11:22:26.638Z,78.76
2019-03-03T11:28:48.178Z,78.69
2019-03-03T11:34:52.578Z,78.43
2019-03-03T11:40:58.992Z,78.36
2019-03-03T11:47:05.453Z,78.49
2019-03-03T11:53:20.627Z,78.19
2019-03-03T11:59:28.137Z,79.32
2019-03-03T12:05:40.641Z,81.35
2019-03-03T12:11:56.006Z,82.35
2019-03-03T12:18:20.674Z,83.57
2019-03-03T12:24:26.909Z,83.45
2019-03-03T12:30:43.771Z,83.81
2019-03-03T12:37:08.540Z,83.97
2019-03-03T12:43:14.742Z,84.12
2019-03-03T12:49:33.070Z,86.05
2019-03-03T12:55:39.319Z,86.58
2019-03-03T13:01:43.653Z,86.40
2019-03-03T13:07:50.391Z,87.09
2019-03-03T13:13:57.451Z,86.62
2019-03-03T13:20:13.038Z,86.85
2019-03-03T13:26:37.640Z,87.49
2019-03-03T13:32:43.930Z,88.31
2019-03-03T13:39:06.106Z,89.00
2019-03-03T13:45:13.168Z,89.51
2019-03-03T13:51:17.946Z,89.84
2019-03-03T13:57:22.670Z,90.19
2019-03-03T14:03:28.374Z,89.19
2019-03-03T14:09:33.270Z,89.17
2019-03-03T14:15:37.975Z,88.67
2019-03-03T14:21:42.770Z,89.36
2019-03-03T14:27:47.465Z,90.05
2019-03-03T14:33:53.193Z,88.97
2019-03-03T14:39:57.954Z,90.12
2019-03-03T14:46:02.860Z,89.27
2019-03-03T14:52:07.554Z,89.96
2019-03-03T14:58:12.183Z,88.80
2019-03-03T15:04:16.811Z,90.45
2019-03-03T15:10:21.453Z,90.70
2019-03-03T15:16:26.017Z,89.76
2019-03-03T15:22:31.315Z,90.17
2019-03-03T15:28:36.128Z,90.12
2019-03-03T15:34:40.764Z,90.75
2019-03-03T15:40:45.413Z,90.51
2019-03-03T15:46:50.152Z,91.37
2019-03-03T15:52:54.869Z,91.77
2019-03-03T15:59:01.372Z,91.60
2019-03-03T16:05:09.537Z,91.34
2019-03-03T16:11:14.153Z,91.02
2019-03-03T16:17:18.729Z,90.76
2019-03-03T16:23:23.599Z,90.34
2019-03-03T16:29:28.328Z,89.93
2019-03-03T16:35:33.131Z,89.00
2019-03-03T16:41:37.862Z,89.73
2019-03-03T16:47:42.492Z,89.62
2019-03-03T16:53:47.128Z,88.82
2019-03-03T16:59:51.694Z,88.71
2019-03-03T17:05:56.263Z,87.65
2019-03-03T17:12:01.624Z,87.77
2019-03-03T17:18:06.537Z,88.60
2019-03-03T17:24:11.107Z,88.39
2019-03-03T17:30:19.660Z,87.55
2019-03-03T17:36:24.227Z,87.96
2019-03-03T17:42:29.160Z,87.04
2019-03-03T17:48:33.707Z,87.07
2019-03-03T17:54:38.373Z,87.96
2019-03-03T18:00:44.636Z,87.28
2019-03-03T18:06:50.140Z,86.90
2019-03-03T18:12:54.843Z,87.27
2019-03-03T18:19:00.138Z,87.04
2019-03-03T18:25:06.256Z,86.59
2019-03-03T18:31:10.877Z,85.78
2019-03-03T18:37:15.518Z,87.71
2019-03-03T18:43:20.076Z,87.75
2019-03-03T18:49:24.753Z,88.60
2019-03-03T18:55:30.028Z,88.83
2019-03-03T19:01:34.727Z,87.35
2019-03-03T19:07:39.504Z,87.57
2019-03-03T19:13:44.090Z,86.49
2019-03-03T19:19:48.842Z,86.08
2019-03-03T19:25:53.446Z,84.81
2019-03-03T19:31:58.098Z,85.56
2019-03-03T19:38:02.909Z,85.15
2019-03-03T19:44:07.879Z,85.41
2019-03-03T19:50:14.678Z,84.67
2019-03-03T19:56:19.590Z,84.16
2019-03-03T20:02:24.288Z,84.13
2019-03-03T20:08:29.466Z,84.76
2019-03-03T20:14:34.026Z,84.76
2019-03-03T20:20:39.614Z,84.61
2019-03-03T20:26:44.306Z,84.46
2019-03-03T20:32:49.110Z,84.15
2019-03-03T20:38:53.697Z,84.20
2019-03-03T20:44:58.383Z,84.02
2019-03-03T20:51:03.464Z,83.79
2019-03-03T20:57:08.200Z,82.90
2019-03-03T21:03:13.050Z,83.06
2019-03-03T21:09:17.883Z,82.02
2019-03-03T21:15:22.583Z,81.86
2019-03-03T21:21:27.171Z,82.35
2019-03-03T21:27:31.981Z,81.85
2019-03-03T21:33:36.615Z,81.93
2019-03-03T21:39:41.163Z,81.53
2019-03-03T21:45:46.092Z,81.56
2019-03-03T21:51:50.718Z,81.58
2019-03-03T21:57:55.305Z,80.77
2019-03-03T22:04:00.222Z,80.50
2019-03-03T22:10:07.142Z,79.77
2019-03-03T22:16:11.703Z,80.09
2019-03-03T22:22:16.264Z,79.30
2019-03-03T22:28:20.816Z,78.46
2019-03-03T22:34:25.538Z,78.06
2019-03-03T22:40:30.880Z,77.67
2019-03-03T22:46:35.623Z,77.68
2019-03-03T22:52:40.616Z,77.66
2019-03-03T22:58:45.161Z,76.98
2019-03-03T23:05:03.646Z,77.60
2019-03-03T23:11:50.844Z,76.46
2019-03-03T23:18:39.599Z,77.01
2019-03-03T23:25:07.088Z,76.96
2019-03-03T23:31:11.720Z,77.99
2019-03-03T23:37:16.355Z,77.58
2019-03-03T23:43:21.081Z,78.43
2019-03-03T23:49:25.633Z,78.75
2019-03-03T23:55:30.678Z,79.05
